sensor_id;sensor_type;location;lat;lon;timestamp;pressure;altitude;pressure_sealevel;temperature;humidity
48364;BME280;34170;54.364;18.582;2022-07-21T00:00:29;100648.88;;;20.33;94.54
48364;BME280;34170;54.364;18.582;2022-07-21T00:03:06;100656.19;;;20.26;94.92
48364;BME280;34170;54.364;18.582;2022-07-21T00:05:34;100659.97;;;20.25;94.81
48364;BME280;34170;54.364;18.582;2022-07-21T00:08:01;100663.50;;;20.19;94.97
48364;BME280;34170;54.364;18.582;2022-07-21T00:10:29;100658.22;;;20.11;95.05
48364;BME280;34170;54.364;18.582;2022-07-21T00:12:57;100673.31;;;20.07;95.25
48364;BME280;34170;54.364;18.582;2022-07-21T00:15:26;100672.31;;;20.14;95.40
48364;BME280;34170;54.364;18.582;2022-07-21T00:17:54;100669.50;;;20.08;95.32
48364;BME280;34170;54.364;18.582;2022-07-21T00:20:21;100671.47;;;20.14;95.90
48364;BME280;34170;54.364;18.582;2022-07-21T00:22:49;100667.34;;;19.96;96.63
48364;BME280;34170;54.364;18.582;2022-07-21T00:25:16;100674.66;;;19.96;96.55
48364;BME280;34170;54.364;18.582;2022-07-21T00:27:44;100671.53;;;19.99;96.64
48364;BME280;34170;54.364;18.582;2022-07-21T00:30:12;100670.34;;;20.08;96.34
48364;BME280;34170;54.364;18.582;2022-07-21T00:32:39;100674.78;;;20.09;96.33
48364;BME280;34170;54.364;18.582;2022-07-21T00:35:08;100663.81;;;20.03;96.12
48364;BME280;34170;54.364;18.582;2022-07-21T00:37:36;100676.41;;;20.04;97.18
48364;BME280;34170;54.364;18.582;2022-07-21T00:40:05;100664.88;;;20.08;96.83
48364;BME280;34170;54.364;18.582;2022-07-21T00:42:34;100675.72;;;20.23;96.10
48364;BME280;34170;54.364;18.582;2022-07-21T00:45:05;100658.59;;;20.08;97.10
48364;BME280;34170;54.364;18.582;2022-07-21T00:47:34;100663.84;;;20.09;97.91
48364;BME280;34170;54.364;18.582;2022-07-21T00:50:05;100664.31;;;20.13;97.59
48364;BME280;34170;54.364;18.582;2022-07-21T00:52:33;100653.00;;;20.16;97.32
48364;BME280;34170;54.364;18.582;2022-07-21T00:55:01;100658.38;;;20.37;96.44
48364;BME280;34170;54.364;18.582;2022-07-21T00:57:29;100672.00;;;20.31;96.83
48364;BME280;34170;54.364;18.582;2022-07-21T00:59:57;100669.00;;;20.26;96.68
48364;BME280;34170;54.364;18.582;2022-07-21T01:02:24;100675.75;;;20.30;96.66
48364;BME280;34170;54.364;18.582;2022-07-21T01:04:54;100673.97;;;20.15;97.03
48364;BME280;34170;54.364;18.582;2022-07-21T01:07:21;100673.53;;;20.12;97.94
48364;BME280;34170;54.364;18.582;2022-07-21T01:09:49;100677.69;;;20.08;98.32
48364;BME280;34170;54.364;18.582;2022-07-21T01:12:17;100678.59;;;20.15;97.63
48364;BME280;34170;54.364;18.582;2022-07-21T01:14:45;100681.06;;;20.10;98.21
48364;BME280;34170;54.364;18.582;2022-07-21T01:17:12;100666.22;;;20.19;97.70
48364;BME280;34170;54.364;18.582;2022-07-21T01:19:40;100666.03;;;20.21;97.36
48364;BME280;34170;54.364;18.582;2022-07-21T01:22:07;100666.91;;;20.28;96.41
48364;BME280;34170;54.364;18.582;2022-07-21T01:24:35;100662.31;;;20.28;96.43
48364;BME280;34170;54.364;18.582;2022-07-21T01:27:02;100663.75;;;20.24;96.13
48364;BME280;34170;54.364;18.582;2022-07-21T01:29:30;100665.19;;;20.20;96.13
48364;BME280;34170;54.364;18.582;2022-07-21T01:31:57;100661.88;;;20.25;95.68
48364;BME280;34170;54.364;18.582;2022-07-21T01:34:24;100669.91;;;20.33;95.22
48364;BME280;34170;54.364;18.582;2022-07-21T01:36:52;100648.41;;;20.23;95.37
48364;BME280;34170;54.364;18.582;2022-07-21T01:39:19;100654.97;;;20.29;94.77
48364;BME280;34170;54.364;18.582;2022-07-21T01:42:06;100655.34;;;20.26;94.84
48364;BME280;34170;54.364;18.582;2022-07-21T01:44:33;100649.44;;;20.22;95.17
48364;BME280;34170;54.364;18.582;2022-07-21T01:47:00;100655.78;;;20.29;94.71
48364;BME280;34170;54.364;18.582;2022-07-21T01:49:28;100654.28;;;20.20;94.61
48364;BME280;34170;54.364;18.582;2022-07-21T01:51:55;100656.56;;;20.16;95.20
48364;BME280;34170;54.364;18.582;2022-07-21T01:54:22;100658.47;;;20.16;95.01
48364;BME280;34170;54.364;18.582;2022-07-21T01:56:51;100661.00;;;20.24;95.22
48364;BME280;34170;54.364;18.582;2022-07-21T01:59:19;100661.81;;;20.18;94.19
48364;BME280;34170;54.364;18.582;2022-07-21T02:01:46;100666.34;;;20.04;95.33
48364;BME280;34170;54.364;18.582;2022-07-21T02:04:14;100673.69;;;20.04;95.21
48364;BME280;34170;54.364;18.582;2022-07-21T02:06:42;100672.44;;;20.06;95.53
48364;BME280;34170;54.364;18.582;2022-07-21T02:09:09;100660.19;;;19.95;95.26
48364;BME280;34170;54.364;18.582;2022-07-21T02:11:38;100662.06;;;19.95;95.62
48364;BME280;34170;54.364;18.582;2022-07-21T02:14:05;100657.91;;;19.99;95.28
48364;BME280;34170;54.364;18.582;2022-07-21T02:16:33;100655.97;;;19.93;94.79
48364;BME280;34170;54.364;18.582;2022-07-21T02:19:01;100655.06;;;19.86;95.18
48364;BME280;34170;54.364;18.582;2022-07-21T02:21:28;100661.13;;;19.81;95.08
48364;BME280;34170;54.364;18.582;2022-07-21T02:23:55;100662.66;;;19.90;94.66
48364;BME280;34170;54.364;18.582;2022-07-21T02:26:23;100669.16;;;19.89;94.53
48364;BME280;34170;54.364;18.582;2022-07-21T02:28:50;100665.34;;;19.84;94.84
48364;BME280;34170;54.364;18.582;2022-07-21T02:31:18;100655.34;;;19.69;95.86
48364;BME280;34170;54.364;18.582;2022-07-21T02:33:45;100662.75;;;19.75;95.67
48364;BME280;34170;54.364;18.582;2022-07-21T02:36:13;100675.25;;;19.70;95.64
48364;BME280;34170;54.364;18.582;2022-07-21T02:38:40;100661.75;;;19.61;96.15
48364;BME280;34170;54.364;18.582;2022-07-21T02:41:08;100656.47;;;19.60;96.64
48364;BME280;34170;54.364;18.582;2022-07-21T02:43:35;100667.19;;;19.61;96.42
48364;BME280;34170;54.364;18.582;2022-07-21T02:46:02;100662.53;;;19.55;96.45
48364;BME280;34170;54.364;18.582;2022-07-21T02:48:30;100656.44;;;19.53;96.42
48364;BME280;34170;54.364;18.582;2022-07-21T02:50:57;100659.16;;;19.53;96.29
48364;BME280;34170;54.364;18.582;2022-07-21T02:53:24;100657.38;;;19.67;94.59
48364;BME280;34170;54.364;18.582;2022-07-21T02:55:52;100654.56;;;19.75;94.01
48364;BME280;34170;54.364;18.582;2022-07-21T02:58:25;100647.78;;;19.71;93.61
48364;BME280;34170;54.364;18.582;2022-07-21T03:00:55;100657.34;;;19.82;93.37
48364;BME280;34170;54.364;18.582;2022-07-21T03:03:25;100648.38;;;19.88;92.27
48364;BME280;34170;54.364;18.582;2022-07-21T03:05:53;100653.81;;;19.88;92.33
48364;BME280;34170;54.364;18.582;2022-07-21T03:08:22;100650.72;;;19.91;91.73
48364;BME280;34170;54.364;18.582;2022-07-21T03:10:49;100649.00;;;19.90;91.79
48364;BME280;34170;54.364;18.582;2022-07-21T03:13:17;100654.72;;;19.95;91.58
48364;BME280;34170;54.364;18.582;2022-07-21T03:15:45;100647.63;;;20.01;91.19
48364;BME280;34170;54.364;18.582;2022-07-21T03:18:12;100635.22;;;19.98;90.69
48364;BME280;34170;54.364;18.582;2022-07-21T03:20:41;100651.22;;;20.02;90.71
48364;BME280;34170;54.364;18.582;2022-07-21T03:23:09;100642.47;;;20.13;89.36
48364;BME280;34170;54.364;18.582;2022-07-21T03:25:36;100643.59;;;20.25;88.88
48364;BME280;34170;54.364;18.582;2022-07-21T03:28:04;100645.59;;;20.45;88.24
48364;BME280;34170;54.364;18.582;2022-07-21T03:30:32;100642.28;;;20.14;88.55
48364;BME280;34170;54.364;18.582;2022-07-21T03:33:00;100644.38;;;20.19;88.45
48364;BME280;34170;54.364;18.582;2022-07-21T03:35:27;100638.97;;;20.26;88.05
48364;BME280;34170;54.364;18.582;2022-07-21T03:37:57;100651.84;;;20.38;87.47
48364;BME280;34170;54.364;18.582;2022-07-21T03:40:28;100653.97;;;20.71;86.05
48364;BME280;34170;54.364;18.582;2022-07-21T03:42:58;100647.53;;;20.86;86.31
48364;BME280;34170;54.364;18.582;2022-07-21T03:45:26;100647.00;;;20.69;85.36
48364;BME280;34170;54.364;18.582;2022-07-21T03:47:58;100646.38;;;21.28;82.76
48364;BME280;34170;54.364;18.582;2022-07-21T03:50:27;100648.97;;;22.10;77.55
48364;BME280;34170;54.364;18.582;2022-07-21T03:52:55;100660.72;;;21.44;79.15
48364;BME280;34170;54.364;18.582;2022-07-21T03:55:23;100656.97;;;22.12;76.73
48364;BME280;34170;54.364;18.582;2022-07-21T03:57:54;100654.84;;;22.20;75.10
48364;BME280;34170;54.364;18.582;2022-07-21T04:02:50;100661.00;;;21.62;77.36
48364;BME280;34170;54.364;18.582;2022-07-21T04:05:18;100660.34;;;21.67;77.54
48364;BME280;34170;54.364;18.582;2022-07-21T04:07:47;100659.44;;;21.40;77.64
48364;BME280;34170;54.364;18.582;2022-07-21T04:10:18;100663.06;;;21.60;77.29
48364;BME280;34170;54.364;18.582;2022-07-21T04:12:45;100655.50;;;21.89;76.67
48364;BME280;34170;54.364;18.582;2022-07-21T04:15:13;100656.13;;;22.31;73.96
48364;BME280;34170;54.364;18.582;2022-07-21T04:17:41;100653.81;;;22.08;74.04
48364;BME280;34170;54.364;18.582;2022-07-21T04:20:09;100648.97;;;22.30;72.32
48364;BME280;34170;54.364;18.582;2022-07-21T04:22:37;100649.50;;;22.65;71.25
48364;BME280;34170;54.364;18.582;2022-07-21T04:25:06;100646.25;;;21.90;74.73
48364;BME280;34170;54.364;18.582;2022-07-21T04:27:34;100652.78;;;22.09;74.68
48364;BME280;34170;54.364;18.582;2022-07-21T04:30:03;100648.75;;;22.18;72.71
48364;BME280;34170;54.364;18.582;2022-07-21T04:32:32;100646.44;;;22.35;72.15
48364;BME280;34170;54.364;18.582;2022-07-21T04:34:59;100656.75;;;22.13;73.04
48364;BME280;34170;54.364;18.582;2022-07-21T04:37:26;100654.16;;;22.58;70.92
48364;BME280;34170;54.364;18.582;2022-07-21T04:39:54;100657.41;;;21.95;73.31
48364;BME280;34170;54.364;18.582;2022-07-21T04:42:21;100648.47;;;22.53;71.25
48364;BME280;34170;54.364;18.582;2022-07-21T04:44:50;100655.53;;;22.88;69.83
48364;BME280;34170;54.364;18.582;2022-07-21T04:47:18;100651.31;;;23.62;66.00
48364;BME280;34170;54.364;18.582;2022-07-21T04:49:45;100647.41;;;23.83;65.94
48364;BME280;34170;54.364;18.582;2022-07-21T04:52:12;100652.13;;;23.37;66.83
48364;BME280;34170;54.364;18.582;2022-07-21T04:54:40;100645.94;;;23.17;67.64
48364;BME280;34170;54.364;18.582;2022-07-21T04:57:07;100636.97;;;23.60;66.85
48364;BME280;34170;54.364;18.582;2022-07-21T04:59:35;100638.53;;;24.25;64.64
48364;BME280;34170;54.364;18.582;2022-07-21T05:02:03;100642.28;;;24.30;62.69
48364;BME280;34170;54.364;18.582;2022-07-21T05:04:31;100637.78;;;23.67;64.33
48364;BME280;34170;54.364;18.582;2022-07-21T05:06:58;100656.16;;;23.98;63.60
48364;BME280;34170;54.364;18.582;2022-07-21T05:09:26;100647.41;;;24.27;63.22
48364;BME280;34170;54.364;18.582;2022-07-21T05:11:53;100647.88;;;24.42;61.54
48364;BME280;34170;54.364;18.582;2022-07-21T05:14:20;100655.75;;;24.39;61.51
48364;BME280;34170;54.364;18.582;2022-07-21T05:16:48;100649.81;;;24.60;60.37
48364;BME280;34170;54.364;18.582;2022-07-21T05:19:15;100645.00;;;24.55;61.37
48364;BME280;34170;54.364;18.582;2022-07-21T05:21:42;100644.72;;;25.43;57.68
48364;BME280;34170;54.364;18.582;2022-07-21T05:24:10;100652.38;;;26.18;55.32
48364;BME280;34170;54.364;18.582;2022-07-21T05:26:37;100645.72;;;28.32;49.09
48364;BME280;34170;54.364;18.582;2022-07-21T05:29:04;100652.75;;;30.26;41.69
48364;BME280;34170;54.364;18.582;2022-07-21T05:31:32;100648.88;;;30.27;40.65
48364;BME280;34170;54.364;18.582;2022-07-21T05:33:59;100655.25;;;32.05;36.73
48364;BME280;34170;54.364;18.582;2022-07-21T05:36:26;100651.06;;;31.92;36.48
48364;BME280;34170;54.364;18.582;2022-07-21T05:38:54;100648.34;;;34.07;33.89
48364;BME280;34170;54.364;18.582;2022-07-21T05:41:22;100658.16;;;35.44;30.62
48364;BME280;34170;54.364;18.582;2022-07-21T05:43:49;100657.44;;;36.04;29.93
48364;BME280;34170;54.364;18.582;2022-07-21T05:46:17;100648.34;;;37.23;27.57
48364;BME280;34170;54.364;18.582;2022-07-21T05:48:44;100645.59;;;38.31;26.45
48364;BME280;34170;54.364;18.582;2022-07-21T05:51:12;100658.63;;;39.59;24.21
48364;BME280;34170;54.364;18.582;2022-07-21T05:53:45;100660.75;;;36.39;27.98
48364;BME280;34170;54.364;18.582;2022-07-21T05:56:12;100656.78;;;35.79;28.60
48364;BME280;34170;54.364;18.582;2022-07-21T05:58:40;100643.81;;;38.84;25.61
48364;BME280;34170;54.364;18.582;2022-07-21T06:01:07;100663.28;;;39.55;23.12
48364;BME280;34170;54.364;18.582;2022-07-21T06:03:36;100659.88;;;40.53;22.62
48364;BME280;34170;54.364;18.582;2022-07-21T06:06:04;100658.91;;;40.78;22.14
48364;BME280;34170;54.364;18.582;2022-07-21T06:08:32;100659.31;;;41.40;21.40
48364;BME280;34170;54.364;18.582;2022-07-21T06:10:59;100653.31;;;41.96;20.59
48364;BME280;34170;54.364;18.582;2022-07-21T06:13:27;100656.91;;;41.51;21.27
48364;BME280;34170;54.364;18.582;2022-07-21T06:15:54;100644.56;;;41.22;20.94
48364;BME280;34170;54.364;18.582;2022-07-21T06:18:21;100659.72;;;40.88;21.50
48364;BME280;34170;54.364;18.582;2022-07-21T06:20:49;100638.75;;;40.68;20.99
48364;BME280;34170;54.364;18.582;2022-07-21T06:23:17;100627.06;;;40.57;21.64
48364;BME280;34170;54.364;18.582;2022-07-21T06:25:44;100637.38;;;40.74;21.21
48364;BME280;34170;54.364;18.582;2022-07-21T06:28:14;100635.81;;;41.36;21.08
48364;BME280;34170;54.364;18.582;2022-07-21T06:30:41;100627.44;;;39.91;22.39
48364;BME280;34170;54.364;18.582;2022-07-21T06:33:09;100640.47;;;40.90;21.25
48364;BME280;34170;54.364;18.582;2022-07-21T06:35:37;100632.91;;;41.66;20.45
48364;BME280;34170;54.364;18.582;2022-07-21T06:38:05;100645.53;;;42.63;20.14
48364;BME280;34170;54.364;18.582;2022-07-21T06:40:38;100643.28;;;43.63;18.77
48364;BME280;34170;54.364;18.582;2022-07-21T06:43:06;100646.41;;;40.20;22.03
48364;BME280;34170;54.364;18.582;2022-07-21T06:45:53;100644.84;;;42.54;20.05
48364;BME280;34170;54.364;18.582;2022-07-21T06:48:21;100643.03;;;42.74;19.54
48364;BME280;34170;54.364;18.582;2022-07-21T06:50:53;100643.34;;;43.78;18.65
48364;BME280;34170;54.364;18.582;2022-07-21T06:53:21;100643.16;;;42.16;19.98
48364;BME280;34170;54.364;18.582;2022-07-21T06:55:49;100634.84;;;41.99;20.04
48364;BME280;34170;54.364;18.582;2022-07-21T06:58:28;100625.44;;;40.77;22.04
48364;BME280;34170;54.364;18.582;2022-07-21T07:01:02;100625.97;;;42.71;19.27
48364;BME280;34170;54.364;18.582;2022-07-21T07:03:30;100622.34;;;38.97;23.59
48364;BME280;34170;54.364;18.582;2022-07-21T07:05:57;100624.75;;;42.96;19.35
48364;BME280;34170;54.364;18.582;2022-07-21T07:08:24;100620.41;;;41.12;21.06
48364;BME280;34170;54.364;18.582;2022-07-21T07:10:52;100613.56;;;43.28;19.15
48364;BME280;34170;54.364;18.582;2022-07-21T07:13:19;100622.72;;;43.94;18.25
48364;BME280;34170;54.364;18.582;2022-07-21T07:16:06;100618.59;;;40.87;21.23
48364;BME280;34170;54.364;18.582;2022-07-21T07:18:34;100616.00;;;40.05;21.58
48364;BME280;34170;54.364;18.582;2022-07-21T07:21:03;100624.31;;;42.20;20.11
48364;BME280;34170;54.364;18.582;2022-07-21T07:23:38;100621.41;;;41.83;20.38
48364;BME280;34170;54.364;18.582;2022-07-21T07:26:07;100614.06;;;40.94;20.69
48364;BME280;34170;54.364;18.582;2022-07-21T07:28:35;100611.63;;;38.41;23.30
48364;BME280;34170;54.364;18.582;2022-07-21T07:31:02;100599.31;;;34.97;29.07
48364;BME280;34170;54.364;18.582;2022-07-21T07:33:29;100606.81;;;37.70;25.14
48364;BME280;34170;54.364;18.582;2022-07-21T07:35:57;100622.66;;;40.30;21.78
48364;BME280;34170;54.364;18.582;2022-07-21T07:38:24;100635.97;;;42.80;19.58
48364;BME280;34170;54.364;18.582;2022-07-21T07:40:52;100635.81;;;40.17;22.39
48364;BME280;34170;54.364;18.582;2022-07-21T07:43:19;100624.47;;;40.34;21.30
48364;BME280;34170;54.364;18.582;2022-07-21T07:45:47;100632.06;;;41.65;20.50
48364;BME280;34170;54.364;18.582;2022-07-21T07:48:14;100637.38;;;42.99;19.45
48364;BME280;34170;54.364;18.582;2022-07-21T07:50:42;100631.34;;;43.69;19.02
48364;BME280;34170;54.364;18.582;2022-07-21T07:53:09;100628.00;;;39.67;22.43
48364;BME280;34170;54.364;18.582;2022-07-21T07:55:36;100616.78;;;38.48;24.23
48364;BME280;34170;54.364;18.582;2022-07-21T07:58:04;100630.66;;;39.54;22.55
48364;BME280;34170;54.364;18.582;2022-07-21T08:00:31;100626.47;;;38.90;23.39
48364;BME280;34170;54.364;18.582;2022-07-21T08:03:18;100627.69;;;39.24;23.01
48364;BME280;34170;54.364;18.582;2022-07-21T08:05:46;100625.63;;;38.81;23.66
48364;BME280;34170;54.364;18.582;2022-07-21T08:08:14;100612.63;;;38.45;24.43
48364;BME280;34170;54.364;18.582;2022-07-21T08:10:42;100624.97;;;37.28;25.68
48364;BME280;34170;54.364;18.582;2022-07-21T08:13:13;100620.31;;;35.84;27.38
48364;BME280;34170;54.364;18.582;2022-07-21T08:15:41;100613.59;;;38.32;24.84
48364;BME280;34170;54.364;18.582;2022-07-21T08:18:10;100620.50;;;39.97;22.56
48364;BME280;34170;54.364;18.582;2022-07-21T08:20:38;100625.13;;;41.00;21.13
48364;BME280;34170;54.364;18.582;2022-07-21T08:23:05;100631.97;;;39.31;23.31
48364;BME280;34170;54.364;18.582;2022-07-21T08:25:33;100634.38;;;40.11;21.72
48364;BME280;34170;54.364;18.582;2022-07-21T08:28:01;100615.75;;;39.36;23.37
48364;BME280;34170;54.364;18.582;2022-07-21T08:30:28;100620.28;;;38.13;25.14
48364;BME280;34170;54.364;18.582;2022-07-21T08:32:58;100614.59;;;39.46;23.24
48364;BME280;34170;54.364;18.582;2022-07-21T08:35:26;100614.84;;;38.17;24.28
48364;BME280;34170;54.364;18.582;2022-07-21T08:38:00;100611.88;;;38.13;24.86
48364;BME280;34170;54.364;18.582;2022-07-21T08:40:31;100601.31;;;36.28;27.77
48364;BME280;34170;54.364;18.582;2022-07-21T08:42:59;100601.72;;;37.72;25.99
48364;BME280;34170;54.364;18.582;2022-07-21T08:45:27;100607.34;;;34.55;29.71
48364;BME280;34170;54.364;18.582;2022-07-21T08:47:57;100599.41;;;37.74;25.69
48364;BME280;34170;54.364;18.582;2022-07-21T08:50:30;100595.84;;;38.14;25.09
48364;BME280;34170;54.364;18.582;2022-07-21T08:52:58;100589.59;;;36.68;26.73
48364;BME280;34170;54.364;18.582;2022-07-21T08:55:31;100575.53;;;34.08;30.16
48364;BME280;34170;54.364;18.582;2022-07-21T08:58:00;100578.75;;;35.78;28.35
48364;BME280;34170;54.364;18.582;2022-07-21T09:00:33;100570.59;;;37.37;26.28
48364;BME280;34170;54.364;18.582;2022-07-21T09:03:09;100567.66;;;38.28;24.80
48364;BME280;34170;54.364;18.582;2022-07-21T09:05:37;100579.06;;;38.00;24.67
48364;BME280;34170;54.364;18.582;2022-07-21T09:08:04;100566.41;;;39.74;23.20
48364;BME280;34170;54.364;18.582;2022-07-21T09:10:32;100582.31;;;40.55;21.67
48364;BME280;34170;54.364;18.582;2022-07-21T09:13:06;100588.78;;;41.40;21.50
48364;BME280;34170;54.364;18.582;2022-07-21T09:15:34;100581.66;;;40.80;21.41
48364;BME280;34170;54.364;18.582;2022-07-21T09:18:12;100584.00;;;41.53;20.88
48364;BME280;34170;54.364;18.582;2022-07-21T09:20:52;100573.38;;;36.64;25.47
48364;BME280;34170;54.364;18.582;2022-07-21T09:23:22;100571.09;;;35.83;28.57
48364;BME280;34170;54.364;18.582;2022-07-21T09:25:55;100564.28;;;35.57;28.65
48364;BME280;34170;54.364;18.582;2022-07-21T09:28:29;100552.66;;;36.10;26.78
48364;BME280;34170;54.364;18.582;2022-07-21T09:31:05;100543.88;;;35.04;28.67
48364;BME280;34170;54.364;18.582;2022-07-21T09:33:41;100543.19;;;37.57;25.86
48364;BME280;34170;54.364;18.582;2022-07-21T09:36:10;100547.19;;;34.68;29.52
48364;BME280;34170;54.364;18.582;2022-07-21T09:43:43;100551.34;;;37.45;26.43
48364;BME280;34170;54.364;18.582;2022-07-21T09:48:48;100548.84;;;39.77;24.06
48364;BME280;34170;54.364;18.582;2022-07-21T09:51:36;100550.97;;;38.23;24.76
48364;BME280;34170;54.364;18.582;2022-07-21T09:54:05;100537.75;;;37.61;26.64
48364;BME280;34170;54.364;18.582;2022-07-21T09:56:42;100543.47;;;38.67;24.55
48364;BME280;34170;54.364;18.582;2022-07-21T09:59:11;100528.75;;;39.22;24.28
48364;BME280;34170;54.364;18.582;2022-07-21T10:01:39;100532.09;;;39.16;23.79
48364;BME280;34170;54.364;18.582;2022-07-21T10:04:06;100522.59;;;36.02;28.11
48364;BME280;34170;54.364;18.582;2022-07-21T10:06:37;100528.09;;;35.93;28.81
48364;BME280;34170;54.364;18.582;2022-07-21T10:09:08;100522.22;;;36.36;27.55
48364;BME280;34170;54.364;18.582;2022-07-21T10:11:40;100516.16;;;34.51;30.29
48364;BME280;34170;54.364;18.582;2022-07-21T10:14:12;100507.56;;;33.75;31.17
48364;BME280;34170;54.364;18.582;2022-07-21T10:16:40;100521.91;;;34.98;29.15
48364;BME280;34170;54.364;18.582;2022-07-21T10:19:26;100522.41;;;35.84;28.54
48364;BME280;34170;54.364;18.582;2022-07-21T10:22:14;100528.50;;;36.00;28.08
48364;BME280;34170;54.364;18.582;2022-07-21T10:24:47;100529.63;;;35.72;28.92
48364;BME280;34170;54.364;18.582;2022-07-21T10:27:16;100515.81;;;34.09;29.47
48364;BME280;34170;54.364;18.582;2022-07-21T10:29:58;100509.09;;;33.28;32.01
48364;BME280;34170;54.364;18.582;2022-07-21T10:32:31;100521.44;;;34.52;30.19
48364;BME280;34170;54.364;18.582;2022-07-21T10:35:00;100516.59;;;34.15;30.46
48364;BME280;34170;54.364;18.582;2022-07-21T10:45:37;100490.28;;;33.14;32.69
48364;BME280;34170;54.364;18.582;2022-07-21T10:48:06;100501.44;;;33.73;30.69
48364;BME280;34170;54.364;18.582;2022-07-21T10:50:37;100499.78;;;34.63;29.55
48364;BME280;34170;54.364;18.582;2022-07-21T10:53:12;100490.13;;;34.74;29.22
48364;BME280;34170;54.364;18.582;2022-07-21T10:56:06;100487.53;;;34.16;30.70
48364;BME280;34170;54.364;18.582;2022-07-21T10:58:37;100487.88;;;33.32;31.93
48364;BME280;34170;54.364;18.582;2022-07-21T11:01:25;100483.38;;;32.62;32.98
48364;BME280;34170;54.364;18.582;2022-07-21T11:04:13;100482.72;;;32.80;32.88
48364;BME280;34170;54.364;18.582;2022-07-21T11:06:45;100487.59;;;32.59;33.44
48364;BME280;34170;54.364;18.582;2022-07-21T11:09:16;100473.28;;;33.45;31.49
48364;BME280;34170;54.364;18.582;2022-07-21T11:14:18;100474.72;;;32.14;33.65
48364;BME280;34170;54.364;18.582;2022-07-21T11:22:14;100476.28;;;32.35;33.94
48364;BME280;34170;54.364;18.582;2022-07-21T11:24:45;100479.91;;;32.36;33.54
48364;BME280;34170;54.364;18.582;2022-07-21T11:27:21;100476.97;;;31.96;33.98
48364;BME280;34170;54.364;18.582;2022-07-21T11:29:57;100471.34;;;32.77;32.72
48364;BME280;34170;54.364;18.582;2022-07-21T11:32:25;100477.09;;;32.85;33.06
48364;BME280;34170;54.364;18.582;2022-07-21T11:35:01;100469.47;;;32.62;33.08
48364;BME280;34170;54.364;18.582;2022-07-21T11:37:32;100468.09;;;31.89;34.14
48364;BME280;34170;54.364;18.582;2022-07-21T11:40:09;100476.25;;;31.65;34.71
48364;BME280;34170;54.364;18.582;2022-07-21T11:42:40;100473.06;;;32.18;35.57
48364;BME280;34170;54.364;18.582;2022-07-21T11:45:09;100471.13;;;31.98;34.13
48364;BME280;34170;54.364;18.582;2022-07-21T11:47:38;100466.50;;;31.67;36.54
48364;BME280;34170;54.364;18.582;2022-07-21T11:50:08;100470.41;;;31.66;34.70
48364;BME280;34170;54.364;18.582;2022-07-21T11:52:38;100466.56;;;32.33;34.17
48364;BME280;34170;54.364;18.582;2022-07-21T11:55:08;100466.31;;;32.79;34.00
48364;BME280;34170;54.364;18.582;2022-07-21T11:57:35;100453.81;;;32.71;33.54
48364;BME280;34170;54.364;18.582;2022-07-21T12:00:05;100451.06;;;32.21;33.31
48364;BME280;34170;54.364;18.582;2022-07-21T12:02:40;100441.47;;;31.72;33.79
48364;BME280;34170;54.364;18.582;2022-07-21T12:05:09;100448.06;;;32.07;34.40
48364;BME280;34170;54.364;18.582;2022-07-21T12:07:47;100445.22;;;32.18;34.69
48364;BME280;34170;54.364;18.582;2022-07-21T12:10:27;100439.16;;;32.05;34.08
48364;BME280;34170;54.364;18.582;2022-07-21T12:13:01;100429.13;;;31.99;37.04
48364;BME280;34170;54.364;18.582;2022-07-21T12:15:34;100437.50;;;32.04;37.44
48364;BME280;34170;54.364;18.582;2022-07-21T12:18:04;100435.88;;;31.83;38.32
48364;BME280;34170;54.364;18.582;2022-07-21T12:20:38;100418.13;;;31.73;39.61
48364;BME280;34170;54.364;18.582;2022-07-21T12:23:20;100425.94;;;31.71;38.03
48364;BME280;34170;54.364;18.582;2022-07-21T12:25:49;100429.28;;;31.58;38.59
48364;BME280;34170;54.364;18.582;2022-07-21T12:28:42;100421.00;;;31.38;38.40
48364;BME280;34170;54.364;18.582;2022-07-21T12:31:12;100418.69;;;31.70;38.86
48364;BME280;34170;54.364;18.582;2022-07-21T12:33:42;100422.22;;;31.91;37.92
48364;BME280;34170;54.364;18.582;2022-07-21T12:36:29;100413.66;;;31.78;38.57
48364;BME280;34170;54.364;18.582;2022-07-21T12:38:57;100420.34;;;31.77;37.86
48364;BME280;34170;54.364;18.582;2022-07-21T12:41:24;100411.03;;;32.07;36.09
48364;BME280;34170;54.364;18.582;2022-07-21T12:43:59;100415.69;;;32.27;37.04
48364;BME280;34170;54.364;18.582;2022-07-21T12:46:29;100407.16;;;32.08;37.25
48364;BME280;34170;54.364;18.582;2022-07-21T12:49:05;100406.97;;;31.84;35.34
48364;BME280;34170;54.364;18.582;2022-07-21T12:51:39;100414.97;;;31.96;36.54
48364;BME280;34170;54.364;18.582;2022-07-21T12:54:09;100409.25;;;31.77;37.05
48364;BME280;34170;54.364;18.582;2022-07-21T12:56:36;100393.09;;;31.84;37.26
48364;BME280;34170;54.364;18.582;2022-07-21T12:59:04;100405.66;;;31.66;37.25
48364;BME280;34170;54.364;18.582;2022-07-21T13:01:32;100393.34;;;31.87;37.28
48364;BME280;34170;54.364;18.582;2022-07-21T13:04:02;100397.44;;;32.05;36.21
48364;BME280;34170;54.364;18.582;2022-07-21T13:06:30;100405.91;;;32.29;35.70
48364;BME280;34170;54.364;18.582;2022-07-21T13:08:58;100401.25;;;32.25;36.41
48364;BME280;34170;54.364;18.582;2022-07-21T13:11:26;100392.56;;;32.32;36.27
48364;BME280;34170;54.364;18.582;2022-07-21T13:13:53;100401.63;;;32.47;35.69
48364;BME280;34170;54.364;18.582;2022-07-21T13:16:24;100405.03;;;32.39;35.08
48364;BME280;34170;54.364;18.582;2022-07-21T13:18:52;100407.41;;;32.56;35.40